This is the latest recevied weather packets stored in our database for station/object ZL1CTS-13. If no packets are shown the sender has not sent any weather packets the latest 1 day(s).
| Time | Temp. | Humidity | Pressure | Rain* | Wind** | Luminosity | Snow |
|---|---|---|---|---|---|---|---|
| 1778050803 | 16.67° C | 93% | 1017.6 hPa | 0 mm | 0 m/s | - | - |
| 1778050207 | 16.67° C | 93% | 1017.7 hPa | 0 mm | 0 m/s | - | - |
| 1778049606 | 16.67° C | 93% | 1017.7 hPa | 0 mm | 0 m/s | - | - |
| 1778049006 | 16.11° C | 92% | 1017.7 hPa | 0 mm | 0 m/s | - | - |
| 1778048406 | 16.11° C | 91% | 1017.6 hPa | 0 mm | 0 m/s | - | - |
| 1778047805 | 16.11° C | 90% | 1017.5 hPa | 0 mm | 0 m/s | - | - |
| 1778047205 | 16.67° C | 89% | 1017.5 hPa | 0 mm | 0 m/s | - | - |
| 1778046604 | 17.22° C | 85% | 1017.5 hPa | 0 mm | 0 m/s | - | - |
| 1778046004 | 18.33° C | 82% | 1017.5 hPa | 0 mm | 0 m/s | - | - |
| 1778045404 | 19.44° C | 77% | 1017.4 hPa | 0 mm | 0 m/s | - | - |
| 1778044804 | 21.67° C | 72% | 1017.6 hPa | 0 mm | 0 m/s | - | - |
| 1778044204 | 23.89° C | 70% | 1017.7 hPa | 0 mm | 0 m/s | - | - |
| 1778043604 | 24.44° C | 67% | 1017.7 hPa | 0 mm | 0 m/s | - | - |
| 1778043003 | 24.44° C | 69% | 1017.6 hPa | 0 mm | 0 m/s | - | - |
| 1778042404 | 23.89° C | 69% | 1017.7 hPa | 0 mm | 0 m/s | - | - |
| 1778041804 | 23.89° C | 70% | 1017.9 hPa | 0 mm | 0.45 m/s, 0° | - | - |
| 1778041204 | 22.78° C | 70% | 1017.8 hPa | 0 mm | 0.45 m/s, 0° | - | - |
| 1778040604 | 22.78° C | 70% | 1017.8 hPa | 0 mm | 0.89 m/s, 282° | - | - |
| 1778040004 | 23.89° C | 72% | 1017.7 hPa | 0 mm | 0.45 m/s, 315° | - | - |
| 1778039404 | 22.78° C | 70% | 1017.9 hPa | 0 mm | 0.89 m/s, 334° | - | - |
| 1778038804 | 23.89° C | 70% | 1017.9 hPa | 0 mm | 0.89 m/s, 328° | - | - |
| 1778038204 | 23.33° C | 70% | 1017.9 hPa | 0 mm | 0.89 m/s, 315° | - | - |
| 1778037604 | 22.78° C | 69% | 1017.9 hPa | 0 mm | 0.89 m/s, 308° | - | - |
| 1778037004 | 23.89° C | 72% | 1017.9 hPa | 0 mm | 1.34 m/s, 0° | - | - |
| 1778036404 | 22.78° C | 70% | 1017.9 hPa | 0 mm | 1.79 m/s, 339° | - | - |
* Rain latest hour (hover to see other rain measurements)
** Current wind speed in m/s (hover to see current wind gust speed)